Time;durP1;ratioP1;P1;durP2;ratioP2;P2;SDS_P1;SDS_P2;PMS_P1;PMS_P2;Temp;Humidity;BMP_temperature;BMP_pressure;BME280_temperature;BME280_humidity;BME280_pressure;Samples;Min_cycle;Max_cycle;Signal;HPM_P1;HPM_P2
2022/10/17 00:01:54;;;;;;;2.38;1.55;;;;;;;;;;5027784;28;20263;-52
2022/10/17 00:04:21;;;;;;;2.88;1.63;;;;;;;;;;5025547;28;20219;-53
2022/10/17 00:06:47;;;;;;;2.70;1.88;;;;;;;;;;5030412;28;20191;-52
2022/10/17 00:09:13;;;;;;;2.30;1.65;;;;;;;;;;5028797;28;20268;-55
2022/10/17 00:11:40;;;;;;;1.95;1.70;;;;;;;;;;5027335;28;20215;-55
2022/10/17 00:14:07;;;;;;;2.08;1.67;;;;;;;;;;5024010;28;20196;-53
2022/10/17 00:16:36;;;;;;;1.98;1.77;;;;;;;;;;5028817;28;20642;-52
2022/10/17 00:19:04;;;;;;;2.10;1.60;;;;;;;;;;5027804;28;20235;-53
2022/10/17 00:21:31;;;;;;;2.53;1.52;;;;;;;;;;5025704;28;20317;-51
2022/10/17 00:23:59;;;;;;;1.55;1.40;;;;;;;;;;5028529;28;20761;-51
2022/10/17 00:26:26;;;;;;;2.07;1.60;;;;;;;;;;5027107;28;20191;-54
2022/10/17 00:28:53;;;;;;;1.60;1.40;;;;;;;;;;5025654;28;20679;-50
2022/10/17 00:31:20;;;;;;;1.60;1.50;;;;;;;;;;5028798;28;20246;-54
2022/10/17 00:33:47;;;;;;;1.92;1.60;;;;;;;;;;5027503;28;20278;-51
2022/10/17 00:36:17;;;;;;;1.70;1.60;;;;;;;;;;5028549;28;20286;-54
2022/10/17 00:38:44;;;;;;;1.58;1.40;;;;;;;;;;5025226;28;20676;-54
2022/10/17 00:41:13;;;;;;;2.22;1.60;;;;;;;;;;5027587;28;20707;-52
2022/10/17 00:43:58;;;;;;;1.90;1.60;;;;;;;;;;5024692;28;20282;-54
2022/10/17 00:46:28;;;;;;;2.10;1.65;;;;;;;;;;5021993;28;20208;-51
2022/10/17 00:48:56;;;;;;;1.70;1.50;;;;;;;;;;5028235;28;20287;-52
2022/10/17 00:51:28;;;;;;;1.70;1.40;;;;;;;;;;5010357;28;20291;-52
2022/10/17 00:53:55;;;;;;;1.65;1.35;;;;;;;;;;5027784;28;20295;-53
2022/10/17 00:56:21;;;;;;;1.73;1.38;;;;;;;;;;5027214;28;20282;-53
2022/10/17 00:58:48;;;;;;;1.65;1.55;;;;;;;;;;5027196;28;20283;-54
2022/10/17 01:01:15;;;;;;;1.95;1.60;;;;;;;;;;5010274;28;20650;-54
2022/10/17 01:03:41;;;;;;;1.50;1.40;;;;;;;;;;5029756;28;20207;-51
2022/10/17 01:06:08;;;;;;;1.65;1.35;;;;;;;;;;4996743;28;20243;-50
2022/10/17 01:08:34;;;;;;;2.10;1.50;;;;;;;;;;5028688;28;20286;-54
2022/10/17 01:11:26;;;;;;;2.03;1.60;;;;;;;;;;5027137;28;20206;-54
2022/10/17 01:14:03;;;;;;;1.75;1.35;;;;;;;;;;5008483;28;20278;-52
2022/10/17 01:16:58;;;;;;;1.75;1.40;;;;;;;;;;5013986;28;20282;-52
2022/10/17 01:19:49;;;;;;;1.45;1.35;;;;;;;;;;5014404;28;20199;-54
2022/10/17 01:22:24;;;;;;;2.05;1.52;;;;;;;;;;5007140;28;20216;-52
2022/10/17 01:25:23;;;;;;;3.25;1.70;;;;;;;;;;5029370;28;20274;-54
2022/10/17 01:27:58;;;;;;;1.77;1.40;;;;;;;;;;5012403;28;20204;-54
2022/10/17 01:30:27;;;;;;;1.83;1.50;;;;;;;;;;5026646;28;20751;-51
2022/10/17 01:32:58;;;;;;;1.90;1.55;;;;;;;;;;5030887;28;20713;-52
2022/10/17 01:35:33;;;;;;;1.65;1.52;;;;;;;;;;5032140;28;20290;-55
2022/10/17 01:38:20;;;;;;;2.22;1.50;;;;;;;;;;5013962;28;20301;-55
2022/10/17 01:41:05;;;;;;;1.98;1.50;;;;;;;;;;5010978;28;20278;-50
2022/10/17 01:43:37;;;;;;;1.77;1.42;;;;;;;;;;5031590;28;20278;-51
2022/10/17 01:46:28;;;;;;;1.98;1.55;;;;;;;;;;5014014;28;20306;-52
2022/10/17 01:48:55;;;;;;;1.60;1.50;;;;;;;;;;5013667;28;20286;-51
2022/10/17 01:51:27;;;;;;;1.58;1.40;;;;;;;;;;5012649;28;20191;-50
2022/10/17 01:54:49;;;;;;;2.10;1.90;;;;;;;;;;5012574;28;20284;-50
2022/10/17 01:57:29;;;;;;;1.60;1.45;;;;;;;;;;4968320;28;20870;-51
2022/10/17 01:59:56;;;;;;;1.77;1.42;;;;;;;;;;5018025;28;20191;-51
2022/10/17 02:02:24;;;;;;;1.90;1.40;;;;;;;;;;5030331;28;20298;-51
2022/10/17 02:04:51;;;;;;;1.98;1.60;;;;;;;;;;5024308;28;20655;-51
2022/10/17 02:07:17;;;;;;;2.38;1.70;;;;;;;;;;5012398;28;20278;-50
2022/10/17 02:09:43;;;;;;;3.53;1.75;;;;;;;;;;5029683;28;20278;-54
2022/10/17 02:12:38;;;;;;;1.45;1.35;;;;;;;;;;5030630;28;20767;-54
2022/10/17 02:15:32;;;;;;;2.43;1.40;;;;;;;;;;5011616;28;20282;-50
2022/10/17 02:18:27;;;;;;;1.55;1.45;;;;;;;;;;5030511;28;20188;-50
2022/10/17 02:21:08;;;;;;;2.17;1.60;;;;;;;;;;5011560;28;20234;-50
2022/10/17 02:23:36;;;;;;;1.60;1.50;;;;;;;;;;5010816;28;20278;-51
2022/10/17 02:26:10;;;;;;;1.98;1.42;;;;;;;;;;5029188;28;20601;-54
2022/10/17 02:29:09;;;;;;;1.77;1.63;;;;;;;;;;5012766;28;20274;-53
2022/10/17 02:31:55;;;;;;;1.40;1.30;;;;;;;;;;5008963;28;20322;-52
2022/10/17 02:34:25;;;;;;;2.00;1.40;;;;;;;;;;5021765;28;20243;-51
2022/10/17 02:36:54;;;;;;;2.00;1.30;;;;;;;;;;5011959;28;20754;-50
2022/10/17 02:39:22;;;;;;;1.40;1.30;;;;;;;;;;5012789;28;20278;-54
2022/10/17 02:41:50;;;;;;;1.58;1.33;;;;;;;;;;5011441;28;20306;-50
2022/10/17 02:44:16;;;;;;;1.50;1.35;;;;;;;;;;5023417;28;20286;-50
2022/10/17 02:46:47;;;;;;;2.03;1.57;;;;;;;;;;5029672;28;20227;-51
2022/10/17 02:49:20;;;;;;;1.75;1.38;;;;;;;;;;5023481;28;20283;-54
2022/10/17 02:51:56;;;;;;;1.30;1.20;;;;;;;;;;5009253;28;20750;-50
2022/10/17 02:54:42;;;;;;;1.48;1.38;;;;;;;;;;5011743;28;20199;-51
2022/10/17 02:57:18;;;;;;;1.63;1.43;;;;;;;;;;5011750;28;20635;-51
2022/10/17 02:59:44;;;;;;;1.75;1.55;;;;;;;;;;5027412;28;20427;-50
2022/10/17 03:02:10;;;;;;;1.90;1.60;;;;;;;;;;5011837;28;20302;-51
2022/10/17 03:04:37;;;;;;;1.73;1.27;;;;;;;;;;5027835;28;20302;-50
2022/10/17 03:07:03;;;;;;;1.57;1.30;;;;;;;;;;5024003;28;20287;-51
2022/10/17 03:09:30;;;;;;;1.60;1.40;;;;;;;;;;5027441;28;20206;-54
2022/10/17 03:11:56;;;;;;;1.52;1.40;;;;;;;;;;5033044;28;20223;-50
2022/10/17 03:14:22;;;;;;;1.57;1.40;;;;;;;;;;5027991;28;20750;-51
2022/10/17 03:16:49;;;;;;;1.80;1.40;;;;;;;;;;5028071;28;20283;-50
2022/10/17 03:19:15;;;;;;;1.67;1.37;;;;;;;;;;5027782;28;20223;-50
2022/10/17 03:21:41;;;;;;;1.63;1.20;;;;;;;;;;5025800;28;20223;-53
2022/10/17 03:24:08;;;;;;;1.83;1.40;;;;;;;;;;5026938;28;20286;-51
2022/10/17 03:26:34;;;;;;;1.93;1.60;;;;;;;;;;5029591;28;20660;-50
2022/10/17 03:29:00;;;;;;;1.70;1.60;;;;;;;;;;5027903;28;20230;-52
2022/10/17 03:31:27;;;;;;;1.50;1.40;;;;;;;;;;5026509;28;20219;-50
2022/10/17 03:33:53;;;;;;;1.67;1.50;;;;;;;;;;5028460;28;20283;-49
2022/10/17 03:36:19;;;;;;;4.27;1.80;;;;;;;;;;5027135;28;20275;-51
2022/10/17 03:38:46;;;;;;;1.30;1.20;;;;;;;;;;5034838;28;20282;-53
2022/10/17 03:41:13;;;;;;;2.57;1.60;;;;;;;;;;5023695;28;20207;-51
2022/10/17 03:43:39;;;;;;;1.83;1.48;;;;;;;;;;5029125;28;20629;-50
2022/10/17 03:46:06;;;;;;;1.80;1.50;;;;;;;;;;5029383;28;20266;-51
2022/10/17 03:48:33;;;;;;;1.50;1.30;;;;;;;;;;5025756;28;20203;-53
2022/10/17 03:51:01;;;;;;;1.60;1.33;;;;;;;;;;5023184;28;20306;-52
2022/10/17 03:53:28;;;;;;;2.00;1.70;;;;;;;;;;5027917;28;20662;-50
2022/10/17 03:55:55;;;;;;;1.27;1.17;;;;;;;;;;5026049;28;20279;-50
2022/10/17 03:58:21;;;;;;;1.37;1.27;;;;;;;;;;5024574;28;20279;-54
2022/10/17 04:00:47;;;;;;;1.77;1.30;;;;;;;;;;5031559;28;20294;-51
2022/10/17 04:03:14;;;;;;;1.53;1.43;;;;;;;;;;5027444;28;20266;-52
2022/10/17 04:05:42;;;;;;;1.40;1.30;;;;;;;;;;5025993;28;20230;-50
2022/10/17 04:08:09;;;;;;;1.40;1.20;;;;;;;;;;5023496;28;20278;-50
2022/10/17 04:10:35;;;;;;;1.70;1.20;;;;;;;;;;5027907;28;20279;-50
2022/10/17 04:13:01;;;;;;;1.80;1.60;;;;;;;;;;5028420;28;20298;-53
2022/10/17 04:15:28;;;;;;;1.40;1.30;;;;;;;;;;5011056;28;20202;-50
2022/10/17 04:17:54;;;;;;;1.60;1.27;;;;;;;;;;5027820;28;20200;-55
2022/10/17 04:20:21;;;;;;;2.22;1.50;;;;;;;;;;5028710;28;20196;-51
2022/10/17 04:22:47;;;;;;;1.80;1.38;;;;;;;;;;5025669;28;20306;-50
2022/10/17 04:25:13;;;;;;;1.65;1.40;;;;;;;;;;5020504;28;20301;-53
2022/10/17 04:27:40;;;;;;;1.67;1.50;;;;;;;;;;5026974;28;20287;-50
2022/10/17 04:30:06;;;;;;;1.45;1.35;;;;;;;;;;5027953;28;20630;-53
2022/10/17 04:32:36;;;;;;;1.55;1.45;;;;;;;;;;5025400;28;20215;-50
2022/10/17 04:35:03;;;;;;;2.17;1.40;;;;;;;;;;5029462;28;20195;-50
2022/10/17 04:37:29;;;;;;;2.33;1.97;;;;;;;;;;5029383;28;20231;-52
2022/10/17 04:39:55;;;;;;;1.48;1.38;;;;;;;;;;5029883;28;20286;-50
2022/10/17 04:42:22;;;;;;;2.30;1.77;;;;;;;;;;5026180;28;20362;-53
2022/10/17 04:44:48;;;;;;;1.73;1.63;;;;;;;;;;5027930;28;20283;-50
2022/10/17 04:47:14;;;;;;;1.43;1.30;;;;;;;;;;5022696;28;20282;-53
2022/10/17 04:49:41;;;;;;;1.60;1.40;;;;;;;;;;5029129;28;20283;-51
2022/10/17 04:52:07;;;;;;;3.03;1.50;;;;;;;;;;5031831;28;20227;-50
2022/10/17 04:54:33;;;;;;;2.50;1.80;;;;;;;;;;5031795;28;20633;-51
2022/10/17 04:57:00;;;;;;;3.30;1.80;;;;;;;;;;5031151;28;20730;-52
2022/10/17 04:59:27;;;;;;;2.00;1.70;;;;;;;;;;5032152;28;20652;-53
2022/10/17 05:01:54;;;;;;;2.25;1.65;;;;;;;;;;5026991;28;20223;-49
2022/10/17 05:04:20;;;;;;;2.47;1.97;;;;;;;;;;5030142;28;20653;-50
2022/10/17 05:06:50;;;;;;;2.33;1.80;;;;;;;;;;5026547;28;20232;-51
2022/10/17 05:09:16;;;;;;;1.43;1.30;;;;;;;;;;5024246;28;20282;-51
2022/10/17 05:11:42;;;;;;;1.50;1.40;;;;;;;;;;5030228;28;20762;-48
2022/10/17 05:14:09;;;;;;;1.60;1.50;;;;;;;;;;5029746;28;20238;-50
2022/10/17 05:16:35;;;;;;;1.60;1.33;;;;;;;;;;5030914;28;20274;-57
2022/10/17 05:19:02;;;;;;;1.80;1.17;;;;;;;;;;5028966;28;20278;-53
2022/10/17 05:21:29;;;;;;;2.03;1.53;;;;;;;;;;5031849;28;20754;-50
2022/10/17 05:23:56;;;;;;;2.07;1.63;;;;;;;;;;5028822;28;20692;-54
2022/10/17 05:26:23;;;;;;;4.37;2.63;;;;;;;;;;5028589;28;20298;-51
2022/10/17 05:28:51;;;;;;;5.70;2.87;;;;;;;;;;5013930;28;20291;-49
2022/10/17 05:31:17;;;;;;;4.75;3.20;;;;;;;;;;5028765;28;20214;-50
2022/10/17 05:33:44;;;;;;;4.43;3.27;;;;;;;;;;5027437;28;20443;-55
2022/10/17 05:36:10;;;;;;;4.90;3.60;;;;;;;;;;5025281;28;20285;-54
2022/10/17 05:38:36;;;;;;;4.30;3.90;;;;;;;;;;5025349;28;20206;-52
2022/10/17 05:41:04;;;;;;;6.30;3.63;;;;;;;;;;5029028;28;20280;-52
2022/10/17 05:43:30;;;;;;;4.37;3.47;;;;;;;;;;5027122;28;20681;-53
2022/10/17 05:45:57;;;;;;;4.70;3.00;;;;;;;;;;5025753;28;20773;-53
2022/10/17 05:48:24;;;;;;;4.93;3.30;;;;;;;;;;5030677;28;20286;-53
2022/10/17 05:50:59;;;;;;;3.73;3.10;;;;;;;;;;5027216;28;20749;-53
2022/10/17 05:53:29;;;;;;;4.10;3.13;;;;;;;;;;5017073;28;20690;-52
2022/10/17 05:55:57;;;;;;;5.30;3.63;;;;;;;;;;5029997;28;20322;-52
2022/10/17 05:58:24;;;;;;;5.43;4.17;;;;;;;;;;5030762;28;20274;-51
2022/10/17 06:01:11;;;;;;;4.43;3.50;;;;;;;;;;5019324;28;20207;-53
2022/10/17 06:03:38;;;;;;;4.77;3.10;;;;;;;;;;5028008;28;20230;-55
2022/10/17 06:06:07;;;;;;;4.30;3.05;;;;;;;;;;5031129;28;20225;-56
2022/10/17 06:08:33;;;;;;;8.85;3.20;;;;;;;;;;5032224;28;20226;-53
2022/10/17 06:10:59;;;;;;;5.40;3.10;;;;;;;;;;5028840;28;20199;-54
2022/10/17 06:13:29;;;;;;;3.40;3.00;;;;;;;;;;5029352;28;20702;-56
2022/10/17 06:15:56;;;;;;;5.53;2.88;;;;;;;;;;5032351;28;20286;-54
2022/10/17 06:18:22;;;;;;;4.57;2.90;;;;;;;;;;5032272;28;20278;-55
2022/10/17 06:20:49;;;;;;;6.80;3.00;;;;;;;;;;5031186;28;20326;-55
2022/10/17 06:23:15;;;;;;;4.73;3.17;;;;;;;;;;5030952;28;20258;-54
2022/10/17 06:25:41;;;;;;;4.93;3.10;;;;;;;;;;5031736;28;20311;-57
2022/10/17 06:28:09;;;;;;;4.57;3.08;;;;;;;;;;5029098;28;20249;-54
2022/10/17 06:30:39;;;;;;;4.00;2.92;;;;;;;;;;5031551;28;20278;-56
2022/10/17 06:33:06;;;;;;;4.10;2.97;;;;;;;;;;5031410;28;20247;-55
2022/10/17 06:35:32;;;;;;;5.25;2.80;;;;;;;;;;5031769;28;20275;-55
2022/10/17 06:37:58;;;;;;;6.17;3.30;;;;;;;;;;5028777;28;20292;-53
2022/10/17 06:40:24;;;;;;;4.03;3.00;;;;;;;;;;5030654;28;20553;-54
2022/10/17 06:42:51;;;;;;;3.65;2.80;;;;;;;;;;5031201;28;20322;-54
2022/10/17 06:45:17;;;;;;;3.80;2.95;;;;;;;;;;5031277;28;20235;-56
2022/10/17 06:47:43;;;;;;;3.42;2.78;;;;;;;;;;5028792;28;20286;-54
2022/10/17 06:50:10;;;;;;;5.35;2.83;;;;;;;;;;5031539;28;20636;-54
2022/10/17 06:52:36;;;;;;;3.07;2.67;;;;;;;;;;5027567;28;20703;-57
2022/10/17 06:55:03;;;;;;;4.47;2.60;;;;;;;;;;5023604;28;20303;-55
2022/10/17 06:57:34;;;;;;;4.03;2.67;;;;;;;;;;5029980;28;20250;-56
2022/10/17 07:00:01;;;;;;;3.20;2.55;;;;;;;;;;5025852;28;20283;-54
2022/10/17 07:02:27;;;;;;;3.85;2.97;;;;;;;;;;5029314;28;20225;-51
2022/10/17 07:04:55;;;;;;;3.97;2.80;;;;;;;;;;5030363;28;20301;-55
2022/10/17 07:07:21;;;;;;;2.95;2.45;;;;;;;;;;5030472;28;20310;-52
2022/10/17 07:09:47;;;;;;;3.05;2.55;;;;;;;;;;5029605;28;20286;-55
2022/10/17 07:12:14;;;;;;;5.57;2.90;;;;;;;;;;5025336;28;20759;-56
2022/10/17 07:14:40;;;;;;;3.67;2.65;;;;;;;;;;5031565;28;20814;-55
2022/10/17 07:17:07;;;;;;;3.95;3.03;;;;;;;;;;5030885;28;20188;-56
2022/10/17 07:19:33;;;;;;;5.07;3.80;;;;;;;;;;5029956;28;20282;-57
2022/10/17 07:21:59;;;;;;;5.93;3.30;;;;;;;;;;5026548;28;20669;-55
2022/10/17 07:24:26;;;;;;;4.80;3.45;;;;;;;;;;5031433;28;20291;-55
2022/10/17 07:26:52;;;;;;;4.22;2.90;;;;;;;;;;5029867;28;20325;-54
2022/10/17 07:29:19;;;;;;;5.80;4.28;;;;;;;;;;5028297;28;20793;-52
2022/10/17 07:31:47;;;;;;;3.63;2.88;;;;;;;;;;5027600;28;20672;-56
2022/10/17 07:34:14;;;;;;;3.70;2.90;;;;;;;;;;5030044;28;20226;-54
2022/10/17 07:36:40;;;;;;;3.92;2.50;;;;;;;;;;5029905;28;20278;-51
2022/10/17 07:39:07;;;;;;;4.00;2.80;;;;;;;;;;5028477;28;20714;-55
2022/10/17 07:41:33;;;;;;;4.03;3.20;;;;;;;;;;5029309;28;20778;-52
2022/10/17 07:43:59;;;;;;;3.65;2.60;;;;;;;;;;5030162;28;20295;-54
2022/10/17 07:46:26;;;;;;;3.17;2.75;;;;;;;;;;5012355;28;20298;-55
2022/10/17 07:48:52;;;;;;;5.38;2.80;;;;;;;;;;5027602;28;20473;-56
2022/10/17 07:51:19;;;;;;;3.75;2.90;;;;;;;;;;5027999;28;20214;-56
2022/10/17 07:53:45;;;;;;;5.28;3.20;;;;;;;;;;5011318;28;20227;-54
2022/10/17 07:56:14;;;;;;;5.60;2.72;;;;;;;;;;5028014;28;20222;-55
2022/10/17 07:58:40;;;;;;;5.30;3.28;;;;;;;;;;5029458;28;20198;-56
2022/10/17 08:01:13;;;;;;;3.10;2.60;;;;;;;;;;5027772;28;20234;-58
2022/10/17 08:03:43;;;;;;;3.90;2.75;;;;;;;;;;5029495;28;20572;-54
2022/10/17 08:06:09;;;;;;;2.55;2.15;;;;;;;;;;5008350;28;20306;-55
2022/10/17 08:08:35;;;;;;;5.65;2.70;;;;;;;;;;5029576;28;20294;-55
2022/10/17 08:11:08;;;;;;;3.72;2.85;;;;;;;;;;5030482;28;20230;-54
2022/10/17 08:13:35;;;;;;;2.55;2.35;;;;;;;;;;5025516;28;20231;-53
2022/10/17 08:16:06;;;;;;;5.53;2.65;;;;;;;;;;5029666;28;20281;-54
2022/10/17 08:18:33;;;;;;;3.05;2.40;;;;;;;;;;5032258;28;20290;-55
2022/10/17 08:21:00;;;;;;;2.70;2.40;;;;;;;;;;5027977;28;20322;-52
2022/10/17 08:23:27;;;;;;;3.00;2.30;;;;;;;;;;5030666;28;20246;-57
2022/10/17 08:25:53;;;;;;;2.95;2.40;;;;;;;;;;5032384;28;20286;-54
2022/10/17 08:28:19;;;;;;;3.42;2.60;;;;;;;;;;5028197;28;20231;-53
2022/10/17 08:30:46;;;;;;;3.55;2.72;;;;;;;;;;5021029;28;20639;-52
2022/10/17 08:33:12;;;;;;;3.53;2.42;;;;;;;;;;5024022;28;20298;-52
2022/10/17 08:35:38;;;;;;;3.67;2.80;;;;;;;;;;5021485;28;20206;-54
2022/10/17 08:38:06;;;;;;;5.13;2.53;;;;;;;;;;5023023;28;20192;-51
2022/10/17 08:40:41;;;;;;;3.47;2.50;;;;;;;;;;5020564;28;20207;-56
2022/10/17 08:43:20;;;;;;;5.82;2.40;;;;;;;;;;5021863;28;20672;-52
2022/10/17 08:45:51;;;;;;;2.60;2.40;;;;;;;;;;5013817;28;20290;-57
2022/10/17 08:48:21;;;;;;;4.93;2.65;;;;;;;;;;5030405;28;20283;-53
2022/10/17 08:51:09;;;;;;;3.63;2.60;;;;;;;;;;5033275;28;20286;-51
2022/10/17 08:53:42;;;;;;;3.08;2.15;;;;;;;;;;5029859;28;20227;-53
2022/10/17 08:56:20;;;;;;;2.97;2.40;;;;;;;;;;5014347;28;20282;-52
2022/10/17 08:59:22;;;;;;;3.40;3.00;;;;;;;;;;5030518;28;20199;-52
2022/10/17 09:02:05;;;;;;;2.88;2.08;;;;;;;;;;5032851;28;20306;-52
2022/10/17 09:04:57;;;;;;;3.47;2.40;;;;;;;;;;5011989;28;20286;-53
2022/10/17 09:07:59;;;;;;;3.70;2.55;;;;;;;;;;5014973;28;20298;-51
2022/10/17 09:10:46;;;;;;;3.78;2.40;;;;;;;;;;5032482;28;20282;-52
2022/10/17 09:13:37;;;;;;;2.42;2.17;;;;;;;;;;5025667;28;20215;-54
2022/10/17 09:16:09;;;;;;;2.78;2.20;;;;;;;;;;5019654;28;20574;-52
2022/10/17 09:18:39;;;;;;;2.55;2.35;;;;;;;;;;5020650;28;20226;-54
2022/10/17 09:21:16;;;;;;;3.20;2.42;;;;;;;;;;5020635;28;20287;-56
2022/10/17 09:23:47;;;;;;;2.85;2.38;;;;;;;;;;5005580;28;20294;-55
2022/10/17 09:26:14;;;;;;;3.63;2.45;;;;;;;;;;5007189;28;20306;-51
2022/10/17 09:28:41;;;;;;;2.40;2.20;;;;;;;;;;5020614;28;20278;-54
2022/10/17 09:31:17;;;;;;;2.55;1.95;;;;;;;;;;5017950;28;20200;-51
2022/10/17 09:33:45;;;;;;;3.08;2.58;;;;;;;;;;5020569;28;20648;-55
2022/10/17 09:36:23;;;;;;;4.38;2.80;;;;;;;;;;5022158;28;20290;-51
2022/10/17 09:38:53;;;;;;;2.55;2.33;;;;;;;;;;5004174;28;20208;-57
2022/10/17 09:41:22;;;;;;;2.95;2.30;;;;;;;;;;5003247;28;20227;-54
2022/10/17 09:44:11;;;;;;;3.45;2.10;;;;;;;;;;5020760;28;20207;-52
2022/10/17 09:46:38;;;;;;;2.92;2.40;;;;;;;;;;5018501;28;20215;-55
2022/10/17 09:49:17;;;;;;;2.92;2.42;;;;;;;;;;5018997;28;20663;-51
2022/10/17 09:51:43;;;;;;;2.60;2.30;;;;;;;;;;5010593;28;20217;-51
2022/10/17 09:54:19;;;;;;;2.47;1.98;;;;;;;;;;5014045;28;20199;-51
2022/10/17 09:56:56;;;;;;;2.85;2.10;;;;;;;;;;5014133;28;20290;-50
2022/10/17 09:59:38;;;;;;;2.95;2.10;;;;;;;;;;5029559;28;20278;-54
2022/10/17 10:02:17;;;;;;;2.38;2.13;;;;;;;;;;5031444;28;20298;-53
2022/10/17 10:04:56;;;;;;;2.90;2.40;;;;;;;;;;5027458;28;20290;-52
2022/10/17 10:07:33;;;;;;;3.38;2.30;;;;;;;;;;5026031;28;20219;-52
2022/10/17 10:10:01;;;;;;;2.85;2.33;;;;;;;;;;5028500;28;20200;-53
2022/10/17 10:12:31;;;;;;;2.92;2.40;;;;;;;;;;5031062;28;21969;-52
2022/10/17 10:14:58;;;;;;;4.07;2.20;;;;;;;;;;5027319;28;20663;-51
2022/10/17 10:17:42;;;;;;;2.72;2.20;;;;;;;;;;5012703;28;20279;-54
2022/10/17 10:20:26;;;;;;;2.75;2.38;;;;;;;;;;5029313;28;20279;-52
2022/10/17 10:23:16;;;;;;;3.17;2.40;;;;;;;;;;5025751;28;20219;-51
2022/10/17 10:25:55;;;;;;;2.33;2.08;;;;;;;;;;5029057;28;20283;-50
2022/10/17 10:28:25;;;;;;;3.45;2.22;;;;;;;;;;5014178;28;20476;-51
2022/10/17 10:30:53;;;;;;;2.80;2.30;;;;;;;;;;5028798;28;20210;-55
2022/10/17 10:33:21;;;;;;;2.45;2.20;;;;;;;;;;5011064;28;20651;-53
2022/10/17 10:36:02;;;;;;;2.58;2.15;;;;;;;;;;5035097;28;20246;-54
2022/10/17 10:38:30;;;;;;;2.90;2.05;;;;;;;;;;5028867;28;20192;-54
2022/10/17 10:41:03;;;;;;;2.38;2.08;;;;;;;;;;5031495;28;20278;-52
2022/10/17 10:43:36;;;;;;;2.55;2.20;;;;;;;;;;5012247;28;20398;-56
2022/10/17 10:46:06;;;;;;;2.58;2.20;;;;;;;;;;5028313;28;20237;-53
2022/10/17 10:48:36;;;;;;;2.47;1.92;;;;;;;;;;5014074;28;20219;-51
2022/10/17 10:51:11;;;;;;;3.10;1.98;;;;;;;;;;5016267;28;20636;-51
2022/10/17 10:53:43;;;;;;;2.20;2.00;;;;;;;;;;5014025;28;20223;-52
2022/10/17 10:56:20;;;;;;;2.92;2.20;;;;;;;;;;5029039;28;20282;-56
2022/10/17 10:58:55;;;;;;;2.35;2.15;;;;;;;;;;5027318;28;20618;-52
2022/10/17 11:01:29;;;;;;;2.53;2.00;;;;;;;;;;5026552;28;20205;-50
2022/10/17 11:04:11;;;;;;;2.45;2.08;;;;;;;;;;5025907;28;20219;-54
2022/10/17 11:06:41;;;;;;;2.53;2.20;;;;;;;;;;5010736;28;20754;-51
2022/10/17 11:09:23;;;;;;;4.13;2.50;;;;;;;;;;5012067;28;20234;-50
2022/10/17 11:11:59;;;;;;;2.63;2.20;;;;;;;;;;5009875;28;20282;-51
2022/10/17 11:14:37;;;;;;;2.70;2.20;;;;;;;;;;5012680;28;20675;-51
2022/10/17 11:17:27;;;;;;;2.85;2.40;;;;;;;;;;5029682;28;20865;-53
2022/10/17 11:20:13;;;;;;;2.97;2.17;;;;;;;;;;5012018;28;20209;-54
2022/10/17 11:22:46;;;;;;;3.28;2.10;;;;;;;;;;5025670;28;20310;-52
2022/10/17 11:25:28;;;;;;;2.60;2.00;;;;;;;;;;5030250;28;20278;-53
2022/10/17 11:27:54;;;;;;;2.20;2.00;;;;;;;;;;5029078;28;20586;-53
2022/10/17 11:30:23;;;;;;;2.85;2.17;;;;;;;;;;5005414;28;20299;-55
2022/10/17 11:32:59;;;;;;;2.33;2.13;;;;;;;;;;5017218;28;20248;-51
2022/10/17 11:35:28;;;;;;;2.30;2.10;;;;;;;;;;4998265;28;20220;-55
2022/10/17 11:38:05;;;;;;;2.30;2.10;;;;;;;;;;5019370;28;20196;-54
2022/10/17 11:40:37;;;;;;;2.45;2.05;;;;;;;;;;5003679;28;20282;-54
2022/10/17 11:43:10;;;;;;;2.35;2.05;;;;;;;;;;5002682;28;20302;-55
2022/10/17 11:45:42;;;;;;;2.70;2.20;;;;;;;;;;5006055;28;20655;-57
2022/10/17 11:48:15;;;;;;;1.98;1.77;;;;;;;;;;5011600;28;20215;-52
2022/10/17 11:50:43;;;;;;;2.15;1.95;;;;;;;;;;5010241;28;20303;-54
2022/10/17 11:54:02;;;;;;;2.85;2.22;;;;;;;;;;5028581;28;20436;-54
2022/10/17 11:56:52;;;;;;;2.95;2.20;;;;;;;;;;5027289;28;20304;-54
2022/10/17 11:59:45;;;;;;;2.15;1.95;;;;;;;;;;5012360;28;20294;-55
2022/10/17 12:02:24;;;;;;;2.45;2.25;;;;;;;;;;5005791;28;20295;-56
2022/10/17 12:05:20;;;;;;;3.20;2.20;;;;;;;;;;5010554;28;20239;-54
2022/10/17 12:08:00;;;;;;;2.95;2.10;;;;;;;;;;5007099;28;20225;-55
2022/10/17 12:10:50;;;;;;;2.55;2.00;;;;;;;;;;5010977;28;20198;-55
2022/10/17 12:13:32;;;;;;;2.30;2.10;;;;;;;;;;5009083;28;20302;-55
2022/10/17 12:16:18;;;;;;;2.30;2.10;;;;;;;;;;5029583;28;20273;-51
2022/10/17 12:18:49;;;;;;;2.10;1.90;;;;;;;;;;5002024;28;20688;-51
2022/10/17 12:21:16;;;;;;;2.05;1.80;;;;;;;;;;5000228;28;20773;-51
2022/10/17 12:23:51;;;;;;;2.72;2.00;;;;;;;;;;5018912;28;20678;-54
2022/10/17 12:26:28;;;;;;;2.10;1.90;;;;;;;;;;5019811;28;20191;-54
2022/10/17 12:28:55;;;;;;;2.28;2.08;;;;;;;;;;4997917;28;20219;-51
2022/10/17 12:31:26;;;;;;;3.35;2.17;;;;;;;;;;5023265;28;20230;-54
2022/10/17 12:34:01;;;;;;;2.28;2.00;;;;;;;;;;5005878;28;20208;-53
2022/10/17 12:36:27;;;;;;;3.00;1.83;;;;;;;;;;5022099;28;20282;-55
2022/10/17 12:39:02;;;;;;;2.78;2.00;;;;;;;;;;5017499;28;20290;-52
2022/10/17 12:41:37;;;;;;;2.17;1.92;;;;;;;;;;5018792;28;20306;-51
2022/10/17 12:44:13;;;;;;;2.75;2.00;;;;;;;;;;5017115;28;20211;-51
2022/10/17 12:46:50;;;;;;;2.20;2.00;;;;;;;;;;5020689;28;20792;-56
2022/10/17 12:49:42;;;;;;;2.60;2.10;;;;;;;;;;5015355;28;20246;-55
2022/10/17 12:52:26;;;;;;;2.55;2.00;;;;;;;;;;5020729;28;20220;-53
2022/10/17 12:54:57;;;;;;;2.28;1.88;;;;;;;;;;5016549;28;20290;-52
2022/10/17 12:57:55;;;;;;;2.17;1.95;;;;;;;;;;5006281;28;20198;-52
2022/10/17 13:00:35;;;;;;;2.38;2.10;;;;;;;;;;5010510;28;20486;-51
2022/10/17 13:03:25;;;;;;;2.33;2.10;;;;;;;;;;5026088;28;20247;-52
2022/10/17 13:05:54;;;;;;;2.13;1.92;;;;;;;;;;5017876;28;20751;-51
2022/10/17 13:08:23;;;;;;;5.53;2.08;;;;;;;;;;5010164;28;20222;-54
2022/10/17 13:10:51;;;;;;;2.33;1.90;;;;;;;;;;5009632;28;20307;-51
2022/10/17 13:13:22;;;;;;;2.22;1.95;;;;;;;;;;5007795;28;20302;-57
2022/10/17 13:15:51;;;;;;;1.98;1.73;;;;;;;;;;5013346;28;20195;-51
2022/10/17 13:18:25;;;;;;;2.90;2.00;;;;;;;;;;5031970;28;20202;-51
2022/10/17 13:20:54;;;;;;;2.35;1.80;;;;;;;;;;5031223;28;20304;-53
2022/10/17 13:23:25;;;;;;;2.30;2.00;;;;;;;;;;5029955;28;20298;-52
2022/10/17 13:26:13;;;;;;;2.47;1.80;;;;;;;;;;5013677;28;20287;-51
2022/10/17 13:28:40;;;;;;;2.33;1.92;;;;;;;;;;5030640;28;20258;-51
2022/10/17 13:31:07;;;;;;;2.65;2.00;;;;;;;;;;5028798;28;20242;-51
2022/10/17 13:33:37;;;;;;;2.78;2.10;;;;;;;;;;5030413;28;20709;-52
2022/10/17 13:36:14;;;;;;;2.28;1.90;;;;;;;;;;5031814;28;20607;-51
2022/10/17 13:38:41;;;;;;;2.40;2.20;;;;;;;;;;5030438;28;20245;-53
2022/10/17 13:41:12;;;;;;;2.00;1.77;;;;;;;;;;5031984;28;20222;-51
2022/10/17 13:44:00;;;;;;;2.38;2.03;;;;;;;;;;5013878;28;20206;-51
2022/10/17 13:46:31;;;;;;;2.20;1.85;;;;;;;;;;5013913;28;20196;-51
2022/10/17 13:49:31;;;;;;;2.55;2.10;;;;;;;;;;5011886;28;20612;-54
2022/10/17 13:51:58;;;;;;;2.35;1.80;;;;;;;;;;5030744;28;20216;-53
2022/10/17 13:54:37;;;;;;;2.78;1.90;;;;;;;;;;4997800;28;20200;-51
2022/10/17 13:57:04;;;;;;;2.00;1.85;;;;;;;;;;5023325;28;20481;-51
2022/10/17 13:59:38;;;;;;;2.28;2.00;;;;;;;;;;5029987;28;20286;-51
2022/10/17 14:02:11;;;;;;;2.45;1.98;;;;;;;;;;5010368;28;20315;-51
2022/10/17 14:04:38;;;;;;;1.80;1.70;;;;;;;;;;5008173;28;20249;-51
2022/10/17 14:07:33;;;;;;;2.13;1.92;;;;;;;;;;5027906;28;20199;-53
2022/10/17 14:10:26;;;;;;;2.40;1.92;;;;;;;;;;5026455;28;20196;-51
2022/10/17 14:12:53;;;;;;;2.53;1.90;;;;;;;;;;5012229;28;20670;-54
2022/10/17 14:15:25;;;;;;;2.20;2.00;;;;;;;;;;5028599;28;20668;-51
2022/10/17 14:17:59;;;;;;;2.30;2.00;;;;;;;;;;5030559;28;20294;-51
2022/10/17 14:20:30;;;;;;;1.90;1.63;;;;;;;;;;5012806;28;20264;-51
2022/10/17 14:23:32;;;;;;;2.63;1.80;;;;;;;;;;5014785;28;20221;-54
2022/10/17 14:26:08;;;;;;;2.10;1.70;;;;;;;;;;5029538;28;20195;-52
2022/10/17 14:28:34;;;;;;;2.10;1.90;;;;;;;;;;5030246;28;20306;-51
2022/10/17 14:31:31;;;;;;;1.90;1.70;;;;;;;;;;5030396;28;20663;-54
2022/10/17 14:33:59;;;;;;;1.98;1.75;;;;;;;;;;5010758;28;20250;-51
2022/10/17 14:36:35;;;;;;;2.00;1.80;;;;;;;;;;5011512;28;20200;-56
2022/10/17 14:39:02;;;;;;;1.92;1.67;;;;;;;;;;5009263;28;20757;-54
2022/10/17 14:41:31;;;;;;;2.45;1.98;;;;;;;;;;5007463;28;20220;-53
2022/10/17 14:44:20;;;;;;;2.38;1.80;;;;;;;;;;5011330;28;20552;-54
2022/10/17 14:46:51;;;;;;;1.75;1.63;;;;;;;;;;5003802;28;20203;-57
2022/10/17 14:49:31;;;;;;;2.17;1.95;;;;;;;;;;5004067;28;20643;-52
2022/10/17 14:52:17;;;;;;;2.72;1.90;;;;;;;;;;5019930;28;20227;-55
2022/10/17 14:54:48;;;;;;;2.00;1.80;;;;;;;;;;5007953;28;20199;-54
2022/10/17 14:57:24;;;;;;;1.80;1.70;;;;;;;;;;5024078;28;20231;-51
2022/10/17 14:59:52;;;;;;;2.00;1.77;;;;;;;;;;5019172;28;20195;-56
2022/10/17 15:02:24;;;;;;;2.03;1.80;;;;;;;;;;5023032;28;20239;-51
2022/10/17 15:04:51;;;;;;;2.28;1.85;;;;;;;;;;5019844;28;20294;-54
2022/10/17 15:07:18;;;;;;;2.03;1.83;;;;;;;;;;5023252;28;20195;-51
2022/10/17 15:09:47;;;;;;;2.22;2.00;;;;;;;;;;5017818;28;20223;-51
2022/10/17 15:12:16;;;;;;;1.92;1.60;;;;;;;;;;5021472;28;20215;-53
2022/10/17 15:14:43;;;;;;;1.70;1.60;;;;;;;;;;5020825;28;20278;-54